createdAt,value
2023-02-16T00:02:13.221Z,19.03
2023-02-16T00:04:42.566Z,19.27
2023-02-16T00:07:10.542Z,19.90
2023-02-16T00:09:38.493Z,17.80
2023-02-16T00:12:36.986Z,18.57
2023-02-16T00:15:17.038Z,18.50
2023-02-16T00:17:44.957Z,19.30
2023-02-16T00:20:17.645Z,19.90
2023-02-16T00:22:45.816Z,19.97
2023-02-16T00:25:13.814Z,19.70
2023-02-16T00:27:41.835Z,20.77
2023-02-16T00:30:16.326Z,19.80
2023-02-16T00:32:44.826Z,18.80
2023-02-16T00:35:17.203Z,19.93
2023-02-16T00:37:45.162Z,19.57
2023-02-16T00:40:14.500Z,17.60
2023-02-16T00:42:44.018Z,19.53
2023-02-16T00:45:19.894Z,19.53
2023-02-16T00:47:50.667Z,18.90
2023-02-16T00:50:24.698Z,18.73
2023-02-16T00:52:53.142Z,18.17
2023-02-16T00:55:23.263Z,19.40
2023-02-16T00:57:53.987Z,19.30
2023-02-16T01:00:26.363Z,21.77
2023-02-16T01:02:58.257Z,20.30
2023-02-16T01:05:27.569Z,20.60
2023-02-16T01:08:13.717Z,19.10
2023-02-16T01:10:59.305Z,19.83
2023-02-16T01:13:30.741Z,20.10
2023-02-16T01:15:59.057Z,21.30
2023-02-16T01:18:27.186Z,19.00
2023-02-16T01:20:56.610Z,21.77
2023-02-16T01:23:24.616Z,20.27
2023-02-16T01:25:52.610Z,20.80
2023-02-16T01:28:22.814Z,21.67
2023-02-16T01:30:51.806Z,19.60
2023-02-16T01:33:20.832Z,18.67
2023-02-16T01:35:49.482Z,21.67
2023-02-16T01:38:21.260Z,21.13
2023-02-16T01:40:56.815Z,19.10
2023-02-16T01:43:30.082Z,21.00
2023-02-16T01:46:04.466Z,20.63
2023-02-16T01:48:33.467Z,20.43
2023-02-16T01:51:08.046Z,20.00
2023-02-16T01:53:44.161Z,19.67
2023-02-16T01:56:21.210Z,20.57
2023-02-16T01:58:52.076Z,20.60
2023-02-16T02:01:39.413Z,18.60
2023-02-16T02:04:44.235Z,21.83
2023-02-16T02:07:19.954Z,19.80
2023-02-16T02:09:57.369Z,20.30
2023-02-16T02:12:33.295Z,20.60
2023-02-16T02:15:01.361Z,22.17
2023-02-16T02:17:30.569Z,19.90
2023-02-16T02:20:11.923Z,21.57
2023-02-16T02:23:34.233Z,19.73
2023-02-16T02:26:38.843Z,21.50
2023-02-16T02:29:44.558Z,22.73
2023-02-16T02:32:22.787Z,20.83
2023-02-16T02:35:09.298Z,21.20
2023-02-16T02:37:47.002Z,21.73
2023-02-16T02:40:24.047Z,20.07
2023-02-16T02:43:00.751Z,23.50
2023-02-16T02:45:33.347Z,22.83
2023-02-16T02:48:01.568Z,20.00
2023-02-16T02:51:04.215Z,19.93
2023-02-16T02:53:46.388Z,22.03
2023-02-16T02:56:37.345Z,21.80
2023-02-16T02:59:26.850Z,22.60
2023-02-16T03:02:33.500Z,21.00
2023-02-16T03:07:57.502Z,20.60
2023-02-16T03:08:17.176Z,21.03
2023-02-16T03:10:46.296Z,20.40
2023-02-16T03:13:18.781Z,19.40
2023-02-16T03:15:55.944Z,22.37
2023-02-16T03:18:46.176Z,21.10
2023-02-16T03:21:33.628Z,14.80
2023-02-16T03:24:21.719Z,18.63
2023-02-16T03:27:09.479Z,19.07
2023-02-16T03:29:57.970Z,20.67
2023-02-16T03:32:26.106Z,22.30
2023-02-16T03:34:55.473Z,19.60
2023-02-16T03:37:23.569Z,19.03
2023-02-16T03:40:08.264Z,22.03
2023-02-16T03:42:36.606Z,21.20
2023-02-16T03:47:50.806Z,18.30
2023-02-16T03:50:20.246Z,20.63
2023-02-16T03:52:48.227Z,20.67
2023-02-16T03:55:19.019Z,19.70
2023-02-16T03:57:47.031Z,20.73
2023-02-16T04:00:15.623Z,19.33
2023-02-16T04:02:43.620Z,21.07
2023-02-16T04:05:11.540Z,19.47
2023-02-16T04:07:40.899Z,19.20
2023-02-16T04:10:09.067Z,19.83
2023-02-16T04:12:39.036Z,20.00
2023-02-16T04:15:10.152Z,20.30
2023-02-16T04:17:38.348Z,20.57
2023-02-16T04:20:07.679Z,21.00
2023-02-16T04:22:35.694Z,20.57
2023-02-16T04:25:05.658Z,19.63
2023-02-16T04:27:33.657Z,19.67
2023-02-16T04:30:01.959Z,19.73
2023-02-16T04:32:30.102Z,21.27
2023-02-16T04:34:58.151Z,18.10
2023-02-16T04:37:26.207Z,18.47
2023-02-16T04:39:54.259Z,18.63
2023-02-16T04:42:32.668Z,16.47
2023-02-16T04:45:47.217Z,18.27
2023-02-16T04:48:15.289Z,16.40
2023-02-16T04:53:49.766Z,19.17
2023-02-16T04:56:18.272Z,16.73
2023-02-16T04:58:47.626Z,18.67
2023-02-16T05:01:20.844Z,17.30
2023-02-16T05:03:49.522Z,18.40
2023-02-16T05:06:17.563Z,18.57
2023-02-16T05:08:47.780Z,18.43
2023-02-16T05:11:33.428Z,19.87
2023-02-16T05:14:20.387Z,17.97
2023-02-16T05:16:48.603Z,15.90
2023-02-16T05:19:16.616Z,12.53
2023-02-16T05:21:44.605Z,17.33
2023-02-16T05:24:13.068Z,17.13
2023-02-16T05:26:41.361Z,17.70
2023-02-16T05:29:10.689Z,18.37
2023-02-16T05:31:38.790Z,17.57
2023-02-16T05:34:06.842Z,18.07
2023-02-16T05:36:35.092Z,17.37
2023-02-16T05:39:03.904Z,16.60
2023-02-16T05:41:39.880Z,11.53
2023-02-16T05:44:09.949Z,11.83
2023-02-16T05:46:41.747Z,16.90
2023-02-16T05:49:10.895Z,12.90
2023-02-16T05:51:42.917Z,18.07
2023-02-16T05:54:17.105Z,16.87
2023-02-16T05:56:46.197Z,12.70
2023-02-16T05:59:16.269Z,16.57
2023-02-16T06:01:49.446Z,18.00
2023-02-16T06:04:19.426Z,18.17
2023-02-16T06:06:47.697Z,16.10
2023-02-16T06:09:16.113Z,17.93
2023-02-16T06:11:44.630Z,16.30
2023-02-16T06:14:14.263Z,15.90
2023-02-16T06:16:45.732Z,17.63
2023-02-16T06:19:14.829Z,17.90
2023-02-16T06:22:13.248Z,16.50
2023-02-16T06:24:41.853Z,17.80
2023-02-16T06:27:10.672Z,15.03
2023-02-16T06:29:41.134Z,16.67
2023-02-16T06:32:10.969Z,16.97
2023-02-16T06:34:39.009Z,16.40
2023-02-16T06:37:07.209Z,17.33
2023-02-16T06:39:53.458Z,16.60
2023-02-16T06:42:21.534Z,16.93
2023-02-16T06:44:53.957Z,17.37
2023-02-16T06:47:24.790Z,18.23
2023-02-16T06:49:52.759Z,16.70
2023-02-16T06:52:20.866Z,15.27
2023-02-16T06:54:52.022Z,17.23
2023-02-16T07:00:31.080Z,17.57
2023-02-16T07:03:02.984Z,16.40
2023-02-16T07:05:31.162Z,17.73
2023-02-16T07:07:59.297Z,15.10
2023-02-16T07:10:34.641Z,17.67
2023-02-16T07:13:08.277Z,18.40
2023-02-16T07:15:36.250Z,16.83
2023-02-16T07:18:09.178Z,16.70
2023-02-16T07:20:37.876Z,15.53
2023-02-16T07:23:06.734Z,17.00
2023-02-16T07:25:36.138Z,16.87
2023-02-16T07:28:05.124Z,17.20
2023-02-16T07:30:33.279Z,15.37
2023-02-16T07:33:01.392Z,10.47
2023-02-16T07:35:30.788Z,14.93
2023-02-16T07:37:58.771Z,15.20
2023-02-16T07:40:27.049Z,15.03
2023-02-16T07:42:55.051Z,15.77
2023-02-16T07:45:22.978Z,14.93
2023-02-16T07:47:51.136Z,15.53
2023-02-16T07:50:19.389Z,14.17
2023-02-16T07:53:07.630Z,14.97
2023-02-16T07:55:40.594Z,15.80
2023-02-16T07:58:08.748Z,15.00
2023-02-16T08:00:37.223Z,15.00
2023-02-16T08:03:05.932Z,15.60
2023-02-16T08:05:35.665Z,16.43
2023-02-16T08:08:05.307Z,15.83
2023-02-16T08:10:33.196Z,17.60
2023-02-16T08:13:01.334Z,19.20
2023-02-16T08:15:29.226Z,18.60
2023-02-16T08:17:57.703Z,18.73
2023-02-16T08:20:43.242Z,19.80
2023-02-16T08:23:15.404Z,22.20
2023-02-16T08:25:44.089Z,18.30
2023-02-16T08:28:15.158Z,16.27
2023-02-16T08:30:43.135Z,16.73
2023-02-16T08:33:11.740Z,14.67
2023-02-16T08:35:39.861Z,13.70
2023-02-16T08:38:08.913Z,15.20
2023-02-16T08:40:41.869Z,13.97
2023-02-16T08:43:09.894Z,14.70
2023-02-16T08:45:38.239Z,14.33
2023-02-16T08:48:06.737Z,14.17
2023-02-16T08:50:37.129Z,13.07
2023-02-16T08:53:05.104Z,13.60
2023-02-16T08:55:33.068Z,13.77
2023-02-16T08:58:04.683Z,12.30
2023-02-16T09:00:41.789Z,12.40
2023-02-16T09:03:20.692Z,12.40
2023-02-16T09:05:50.750Z,13.30
2023-02-16T09:08:19.244Z,12.40
2023-02-16T09:10:47.360Z,12.33
2023-02-16T09:13:16.580Z,12.77
2023-02-16T09:15:45.032Z,12.57
2023-02-16T09:18:14.098Z,12.80
2023-02-16T09:20:46.416Z,12.60
2023-02-16T09:23:14.906Z,14.53
2023-02-16T09:25:42.916Z,15.90
2023-02-16T09:28:11.630Z,13.40
2023-02-16T09:30:41.052Z,13.90
2023-02-16T09:33:08.971Z,13.00
2023-02-16T09:35:39.896Z,12.53
2023-02-16T09:38:08.013Z,12.20
2023-02-16T09:40:37.615Z,11.70
2023-02-16T09:43:13.258Z,12.33
2023-02-16T09:45:46.051Z,11.17
2023-02-16T09:48:25.391Z,12.57
2023-02-16T09:50:55.372Z,11.00
2023-02-16T09:53:33.744Z,11.83
2023-02-16T09:56:10.146Z,12.80
2023-02-16T09:58:43.059Z,12.77
2023-02-16T10:01:21.752Z,12.07
2023-02-16T10:03:59.815Z,12.40
2023-02-16T10:06:43.135Z,14.20
2023-02-16T10:09:14.141Z,12.57
2023-02-16T10:11:48.969Z,13.10
2023-02-16T10:14:30.845Z,12.33
2023-02-16T10:17:06.834Z,14.03
2023-02-16T10:19:40.005Z,12.17
2023-02-16T10:22:17.010Z,10.67
2023-02-16T10:24:53.728Z,12.13
2023-02-16T10:27:23.797Z,13.40
2023-02-16T10:29:52.227Z,13.63
2023-02-16T10:32:29.209Z,14.00
2023-02-16T10:35:04.677Z,12.20
2023-02-16T10:37:43.593Z,12.40
2023-02-16T10:40:25.919Z,12.30
2023-02-16T10:43:01.023Z,13.40
2023-02-16T10:45:34.394Z,12.43
2023-02-16T10:48:03.749Z,11.07
2023-02-16T10:50:37.860Z,10.50
2023-02-16T10:53:11.280Z,12.07
2023-02-16T10:55:39.862Z,12.33
2023-02-16T10:58:18.331Z,12.07
2023-02-16T11:00:52.761Z,11.23
2023-02-16T11:03:25.617Z,11.00
2023-02-16T11:05:55.473Z,10.67
2023-02-16T11:08:25.762Z,12.20
2023-02-16T11:10:55.059Z,11.90
2023-02-16T11:13:31.488Z,12.17
2023-02-16T11:16:03.008Z,11.73
2023-02-16T11:18:39.136Z,12.67
2023-02-16T11:21:08.328Z,11.50
2023-02-16T11:23:37.504Z,13.80
2023-02-16T11:26:08.969Z,12.60
2023-02-16T11:28:39.130Z,11.50
2023-02-16T11:31:17.023Z,11.87
2023-02-16T11:33:57.519Z,12.90
2023-02-16T11:36:37.409Z,12.77
2023-02-16T11:39:11.105Z,12.63
2023-02-16T11:41:39.640Z,11.27
2023-02-16T11:44:24.541Z,12.27
2023-02-16T11:46:52.848Z,12.10
2023-02-16T11:49:32.536Z,13.13
2023-02-16T11:52:00.952Z,11.60
2023-02-16T11:55:08.111Z,11.80
2023-02-16T11:57:37.432Z,11.80
2023-02-16T12:00:16.259Z,12.40
2023-02-16T12:03:08.000Z,10.77
2023-02-16T12:05:50.675Z,11.27
2023-02-16T12:08:36.842Z,12.03
2023-02-16T12:11:25.415Z,11.83
2023-02-16T12:14:11.623Z,12.03
2023-02-16T12:16:46.078Z,10.73
2023-02-16T12:19:32.369Z,11.50
2023-02-16T12:22:10.149Z,11.20
2023-02-16T12:24:48.248Z,11.87
2023-02-16T12:27:21.105Z,13.47
2023-02-16T12:29:57.157Z,9.80
2023-02-16T12:32:44.135Z,10.13
2023-02-16T12:35:41.612Z,10.10
2023-02-16T12:38:24.636Z,9.73
2023-02-16T12:41:03.862Z,8.97
2023-02-16T12:43:38.348Z,10.37
2023-02-16T12:46:14.604Z,10.50
2023-02-16T12:48:46.947Z,9.43
2023-02-16T12:51:20.300Z,9.77
2023-02-16T12:53:56.224Z,8.93
2023-02-16T12:56:29.281Z,9.90
2023-02-16T12:59:08.198Z,8.67
2023-02-16T13:01:36.991Z,8.63
2023-02-16T13:04:14.336Z,8.90
2023-02-16T13:06:49.790Z,8.80
2023-02-16T13:09:37.456Z,9.17
2023-02-16T13:12:12.193Z,8.20
2023-02-16T13:14:45.067Z,8.50
2023-02-16T13:17:17.748Z,8.53
2023-02-16T13:19:47.514Z,9.30
2023-02-16T13:22:52.907Z,9.03
2023-02-16T13:25:47.491Z,9.63
2023-02-16T13:28:38.421Z,9.40
2023-02-16T13:31:29.426Z,7.60
2023-02-16T13:34:26.882Z,6.40
2023-02-16T13:37:10.450Z,7.60
2023-02-16T13:39:54.171Z,7.20
2023-02-16T13:42:59.262Z,7.40
2023-02-16T13:45:30.158Z,7.03
2023-02-16T13:48:01.752Z,6.97
2023-02-16T13:50:34.381Z,7.53
2023-02-16T13:53:19.623Z,6.13
2023-02-16T13:55:52.928Z,7.13
2023-02-16T13:58:34.193Z,7.00
2023-02-16T14:01:38.949Z,7.33
2023-02-16T14:04:13.856Z,7.63
2023-02-16T14:06:42.946Z,7.30
2023-02-16T14:09:34.518Z,7.33
2023-02-16T14:12:04.414Z,7.50
2023-02-16T14:14:36.777Z,7.03
2023-02-16T14:17:17.808Z,7.20
2023-02-16T14:19:56.545Z,8.03
2023-02-16T14:22:36.138Z,7.33
2023-02-16T14:25:08.047Z,7.57
2023-02-16T14:27:47.908Z,8.03
2023-02-16T14:30:24.452Z,7.57
2023-02-16T14:32:57.586Z,7.10
2023-02-16T14:35:30.177Z,7.20
2023-02-16T14:37:59.938Z,7.83
2023-02-16T14:40:50.360Z,6.73
2023-02-16T14:43:32.718Z,8.37
2023-02-16T14:46:29.459Z,7.20
2023-02-16T14:49:30.222Z,7.10
2023-02-16T14:52:36.112Z,7.13
2023-02-16T14:55:27.568Z,6.63
2023-02-16T14:58:00.949Z,7.50
2023-02-16T15:00:34.720Z,8.13
2023-02-16T15:03:07.480Z,6.47
2023-02-16T15:05:43.277Z,7.10
2023-02-16T15:08:17.609Z,7.93
2023-02-16T15:10:47.909Z,7.27
2023-02-16T15:13:22.006Z,7.23
2023-02-16T15:15:56.303Z,6.10
2023-02-16T15:18:29.255Z,5.87
2023-02-16T15:20:58.526Z,5.20
2023-02-16T15:23:28.359Z,5.87
2023-02-16T15:25:59.997Z,6.27
2023-02-16T15:28:31.069Z,5.83
2023-02-16T15:31:05.885Z,6.47
2023-02-16T15:33:37.685Z,6.67
2023-02-16T15:36:10.799Z,6.30
2023-02-16T15:38:41.958Z,5.60
2023-02-16T15:41:14.263Z,6.20
2023-02-16T15:43:50.446Z,7.60
2023-02-16T15:46:33.329Z,6.47
2023-02-16T15:49:12.752Z,6.07
2023-02-16T15:51:46.634Z,6.60
2023-02-16T15:54:24.092Z,7.00
2023-02-16T15:56:56.767Z,6.40
2023-02-16T15:59:35.262Z,6.43
2023-02-16T16:02:13.999Z,7.57
2023-02-16T16:04:45.215Z,6.37
2023-02-16T16:07:16.277Z,5.93
2023-02-16T16:09:45.807Z,7.10
2023-02-16T16:12:16.310Z,7.47
2023-02-16T16:14:51.160Z,6.40
2023-02-16T16:17:24.208Z,6.80
2023-02-16T16:19:55.491Z,6.63
2023-02-16T16:22:35.389Z,7.13
2023-02-16T16:25:05.188Z,7.60
2023-02-16T16:27:36.532Z,7.27
2023-02-16T16:30:28.080Z,6.73
2023-02-16T16:33:05.944Z,6.57
2023-02-16T16:35:44.060Z,6.70
2023-02-16T16:38:24.428Z,7.27
2023-02-16T16:40:56.174Z,6.63
2023-02-16T16:43:28.580Z,6.50
2023-02-16T16:46:11.514Z,7.90
2023-02-16T16:53:03.595Z,6.63
2023-02-16T16:55:35.821Z,7.03
2023-02-16T17:01:16.397Z,8.27
2023-02-16T17:03:47.075Z,8.13
2023-02-16T17:06:16.143Z,7.67
2023-02-16T17:08:45.956Z,9.73
2023-02-16T17:11:37.076Z,8.80
2023-02-16T17:14:11.243Z,10.30
2023-02-16T17:17:09.679Z,10.80
2023-02-16T17:19:37.894Z,15.30
2023-02-16T17:22:14.594Z,15.33
2023-02-16T17:24:44.453Z,11.70
2023-02-16T17:27:12.813Z,11.13
2023-02-16T17:29:49.486Z,11.17
2023-02-16T17:32:57.166Z,11.10
2023-02-16T17:36:01.473Z,14.37
2023-02-16T17:38:32.899Z,11.00
2023-02-16T17:41:04.201Z,13.03
2023-02-16T17:43:48.499Z,13.33
2023-02-16T17:50:34.374Z,10.77
2023-02-16T17:53:07.946Z,9.93
2023-02-16T17:55:41.656Z,11.33
2023-02-16T17:58:30.200Z,9.57
2023-02-16T18:00:58.429Z,11.70
2023-02-16T18:03:26.353Z,10.40
2023-02-16T18:05:54.169Z,11.00
2023-02-16T18:08:25.091Z,10.77
2023-02-16T18:11:01.702Z,9.03
2023-02-16T18:13:31.214Z,9.20
2023-02-16T18:16:00.967Z,8.67
2023-02-16T18:18:29.162Z,9.20
2023-02-16T18:20:57.585Z,8.93
2023-02-16T18:23:26.187Z,9.60
2023-02-16T18:25:54.483Z,7.57
2023-02-16T18:28:27.529Z,7.70
2023-02-16T18:30:56.906Z,8.23
2023-02-16T18:33:25.591Z,8.97
2023-02-16T18:35:55.990Z,9.50
2023-02-16T18:38:25.383Z,8.10
2023-02-16T18:40:54.088Z,8.60
2023-02-16T18:43:22.885Z,9.67
2023-02-16T18:45:51.096Z,8.83
2023-02-16T18:48:20.309Z,10.87
2023-02-16T18:50:48.128Z,9.07
2023-02-16T18:53:15.999Z,10.80
2023-02-16T18:55:43.842Z,10.47
2023-02-16T18:58:14.346Z,10.90
2023-02-16T19:00:43.054Z,9.93
2023-02-16T19:03:11.149Z,9.17
2023-02-16T19:05:40.372Z,9.30
2023-02-16T19:08:08.203Z,8.93
2023-02-16T19:10:36.057Z,9.20
2023-02-16T19:13:05.108Z,7.53
2023-02-16T19:15:33.283Z,9.00
2023-02-16T19:18:06.676Z,10.00
2023-02-16T19:20:35.378Z,9.03
2023-02-16T19:23:04.860Z,9.30
2023-02-16T19:25:33.823Z,9.43
2023-02-16T19:28:01.690Z,9.50
2023-02-16T19:30:29.731Z,10.10
2023-02-16T19:32:57.657Z,8.90
2023-02-16T19:35:25.557Z,10.47
2023-02-16T19:37:53.618Z,9.40
2023-02-16T19:40:23.194Z,8.90
2023-02-16T19:42:51.088Z,10.70
2023-02-16T19:45:19.052Z,10.03
2023-02-16T19:47:46.952Z,10.13
2023-02-16T19:50:14.775Z,9.13
2023-02-16T19:52:42.626Z,11.33
2023-02-16T19:55:11.535Z,10.33
2023-02-16T19:57:41.074Z,9.40
2023-02-16T20:00:13.347Z,9.60
2023-02-16T20:02:41.437Z,9.70
2023-02-16T20:05:10.953Z,10.07
2023-02-16T20:07:38.879Z,10.87
2023-02-16T20:10:08.005Z,9.67
2023-02-16T20:12:35.955Z,9.57
2023-02-16T20:15:11.654Z,9.50
2023-02-16T20:17:39.635Z,9.77
2023-02-16T20:20:08.550Z,10.60
2023-02-16T20:22:36.390Z,8.20
2023-02-16T20:25:04.580Z,10.63
2023-02-16T20:27:32.443Z,10.27
2023-02-16T20:30:02.790Z,9.37
2023-02-16T20:32:31.987Z,11.00
2023-02-16T20:35:02.695Z,10.97
2023-02-16T20:37:30.991Z,11.33
2023-02-16T20:39:58.966Z,11.00
2023-02-16T20:42:27.139Z,10.83
2023-02-16T20:44:55.001Z,10.57
2023-02-16T20:47:22.789Z,10.77
2023-02-16T20:49:52.112Z,10.17
2023-02-16T20:52:19.972Z,10.63
2023-02-16T20:54:48.019Z,10.77
2023-02-16T20:57:26.352Z,12.00
2023-02-16T20:59:55.005Z,11.97
2023-02-16T21:02:23.732Z,11.57
2023-02-16T21:04:53.683Z,10.90
2023-02-16T21:07:21.527Z,10.80
2023-02-16T21:09:49.408Z,12.67
2023-02-16T21:12:17.369Z,10.90
2023-02-16T21:14:45.455Z,10.37
2023-02-16T21:17:13.457Z,10.50
2023-02-16T21:19:41.408Z,10.13
2023-02-16T21:22:11.772Z,9.33
2023-02-16T21:24:40.761Z,9.47
2023-02-16T21:27:08.741Z,10.03
2023-02-16T21:29:37.074Z,9.63
2023-02-16T21:32:05.684Z,10.30
2023-02-16T21:34:34.396Z,9.77
2023-02-16T21:37:02.455Z,10.47
2023-02-16T21:39:49.325Z,10.00
2023-02-16T21:42:17.180Z,10.23
2023-02-16T21:44:45.014Z,9.97
2023-02-16T21:47:31.270Z,10.10
2023-02-16T21:49:59.323Z,9.20
2023-02-16T21:52:27.795Z,9.10
2023-02-16T21:55:14.871Z,9.77
2023-02-16T21:57:43.176Z,10.03
2023-02-16T22:00:15.452Z,10.37
2023-02-16T22:02:43.294Z,10.50
2023-02-16T22:05:13.542Z,10.90
2023-02-16T22:07:41.507Z,11.77
2023-02-16T22:10:11.596Z,11.73
2023-02-16T22:12:39.396Z,10.63
2023-02-16T22:15:07.985Z,10.33
2023-02-16T22:17:35.973Z,10.27
2023-02-16T22:20:04.519Z,12.07
2023-02-16T22:22:32.413Z,11.73
2023-02-16T22:25:00.378Z,11.97
2023-02-16T22:27:29.617Z,11.10
2023-02-16T22:29:57.607Z,10.47
2023-02-16T22:32:25.473Z,11.63
2023-02-16T22:34:54.677Z,10.30
2023-02-16T22:37:22.646Z,11.77
2023-02-16T22:39:51.856Z,10.67
2023-02-16T22:42:19.845Z,9.97
2023-02-16T22:44:49.121Z,9.13
2023-02-16T22:47:17.155Z,8.60
2023-02-16T22:49:45.018Z,9.80
2023-02-16T22:52:12.992Z,9.73
2023-02-16T22:54:40.866Z,9.33
2023-02-16T22:57:08.736Z,10.13
2023-02-16T22:59:36.848Z,10.77
2023-02-16T23:02:06.210Z,10.13
2023-02-16T23:04:34.065Z,10.50
2023-02-16T23:07:01.979Z,10.10
2023-02-16T23:09:29.814Z,9.47
2023-02-16T23:11:58.199Z,9.83
2023-02-16T23:14:27.326Z,8.90
2023-02-16T23:16:56.380Z,10.07
2023-02-16T23:19:27.312Z,9.27
2023-02-16T23:21:55.254Z,8.57
2023-02-16T23:24:24.059Z,8.67
2023-02-16T23:26:52.537Z,9.00
2023-02-16T23:29:20.551Z,8.67
2023-02-16T23:31:48.982Z,10.07
2023-02-16T23:34:18.390Z,8.93
2023-02-16T23:36:47.650Z,10.17
2023-02-16T23:39:18.110Z,10.03
2023-02-16T23:41:46.089Z,10.43
2023-02-16T23:44:15.106Z,9.57
2023-02-16T23:46:43.028Z,8.80
2023-02-16T23:49:10.923Z,9.57
2023-02-16T23:51:38.825Z,9.93
2023-02-16T23:54:10.872Z,9.20
2023-02-16T23:56:40.437Z,10.10
2023-02-16T23:59:08.380Z,9.57
